Time;durP1;ratioP1;P1;durP2;ratioP2;P2;SDS_P1;SDS_P2;PMS_P1;PMS_P2;Temp;Humidity;BMP_temperature;BMP_pressure;BME280_temperature;BME280_humidity;BME280_pressure;Samples;Min_cycle;Max_cycle;Signal;HPM_P1;HPM_P2
2021/01/05 00:00:44;;;;;;;11.37;8.30;;;3.90;1.00;;;;;;5072566;28;20235;-68
2021/01/05 00:03:10;;;;;;;10.50;8.37;;;3.90;1.00;;;;;;5072887;28;20187;-68
2021/01/05 00:05:36;;;;;;;10.17;8.13;;;3.90;1.00;;;;;;5072615;28;20175;-67
2021/01/05 00:08:01;;;;;;;8.77;7.63;;;3.90;1.00;;;;;;5072873;28;20179;-68
2021/01/05 00:10:27;;;;;;;13.63;8.30;;;3.90;1.00;;;;;;5072798;28;20271;-68
2021/01/05 00:12:52;;;;;;;11.27;7.60;;;4.00;1.00;;;;;;5072774;28;20185;-68
2021/01/05 00:15:18;;;;;;;16.10;8.33;;;3.90;1.00;;;;;;5072479;28;20196;-69
2021/01/05 00:17:44;;;;;;;10.60;8.57;;;4.10;1.00;;;;;;5072544;28;20180;-68
2021/01/05 00:20:17;;;;;;;9.80;7.70;;;3.90;1.00;;;;;;5072698;28;20238;-68
2021/01/05 00:22:43;;;;;;;12.55;8.63;;;3.80;1.00;;;;;;5072513;28;20528;-68
2021/01/05 00:25:12;;;;;;;12.57;9.80;;;4.10;1.00;;;;;;5072436;28;20179;-68
2021/01/05 00:27:38;;;;;;;12.60;8.80;;;3.80;1.00;;;;;;5072820;28;20172;-68
2021/01/05 00:30:19;;;;;;;10.88;8.13;;;4.30;1.00;;;;;;5072309;28;20605;-68
2021/01/05 00:32:47;;;;;;;10.00;8.30;;;4.40;1.00;;;;;;5072338;28;20649;-67
2021/01/05 00:35:15;;;;;;;10.68;8.48;;;4.10;1.00;;;;;;5072557;28;20200;-68
2021/01/05 00:37:41;;;;;;;11.13;8.90;;;4.00;1.00;;;;;;5075883;28;20247;-68
2021/01/05 00:40:07;;;;;;;10.37;8.40;;;3.90;1.00;;;;;;5075815;28;20740;-69
2021/01/05 00:42:33;;;;;;;8.70;7.22;;;3.80;1.00;;;;;;5076026;28;20175;-69
2021/01/05 00:44:59;;;;;;;11.47;8.70;;;4.00;1.00;;;;;;5075776;28;20247;-69
2021/01/05 00:47:24;;;;;;;11.13;7.83;;;4.00;1.00;;;;;;5076042;28;20384;-68
2021/01/05 00:49:50;;;;;;;10.23;8.40;;;3.70;1.00;;;;;;5075582;28;20256;-68
2021/01/05 00:52:15;;;;;;;12.00;8.80;;;4.00;1.00;;;;;;5075762;28;20164;-68
2021/01/05 00:54:41;;;;;;;12.03;8.97;;;3.90;1.00;;;;;;5075888;28;20203;-68
2021/01/05 00:57:09;;;;;;;13.30;9.10;;;4.00;1.00;;;;;;5075647;28;20819;-68
2021/01/05 00:59:35;;;;;;;11.15;9.32;;;4.00;1.00;;;;;;5075777;28;20242;-68
2021/01/05 01:02:01;;;;;;;11.23;8.77;;;3.80;1.00;;;;;;5075528;28;20702;-69
2021/01/05 01:04:27;;;;;;;14.93;9.65;;;3.80;1.00;;;;;;5075448;28;20298;-68
2021/01/05 01:06:53;;;;;;;10.77;8.43;;;3.80;1.00;;;;;;5074056;28;20172;-68
2021/01/05 01:09:19;;;;;;;12.20;8.93;;;3.80;1.00;;;;;;5075403;28;20192;-68
2021/01/05 01:12:04;;;;;;;11.75;9.13;;;3.80;1.00;;;;;;5075326;28;20834;-68
2021/01/05 01:14:31;;;;;;;12.10;8.45;;;3.90;1.00;;;;;;5075264;28;20184;-68
2021/01/05 01:16:56;;;;;;;12.05;8.95;;;4.00;1.00;;;;;;5075360;28;20231;-68
2021/01/05 01:19:22;;;;;;;11.60;8.37;;;4.10;1.00;;;;;;5075383;28;20211;-68
2021/01/05 01:21:49;;;;;;;12.17;8.60;;;4.10;1.00;;;;;;5075073;28;20204;-68
2021/01/05 01:24:18;;;;;;;12.90;8.93;;;3.90;1.00;;;;;;5073818;28;20175;-68
2021/01/05 01:26:44;;;;;;;11.85;8.30;;;3.90;1.00;;;;;;5075313;28;20221;-68
2021/01/05 01:29:09;;;;;;;10.90;7.57;;;3.90;1.00;;;;;;5075000;28;20234;-68
2021/01/05 01:31:35;;;;;;;15.33;8.40;;;3.90;1.00;;;;;;5075016;28;20654;-68
2021/01/05 01:34:00;;;;;;;12.70;9.50;;;3.90;1.00;;;;;;5074930;28;20574;-68
2021/01/05 01:36:26;;;;;;;13.93;8.57;;;4.00;1.00;;;;;;5075092;28;20219;-68
2021/01/05 01:38:52;;;;;;;15.37;9.83;;;4.00;1.00;;;;;;5074974;28;20188;-68
2021/01/05 01:41:17;;;;;;;11.13;8.60;;;4.10;1.00;;;;;;5075113;28;20168;-68
2021/01/05 01:43:43;;;;;;;10.13;8.77;;;4.00;1.00;;;;;;5074698;28;20473;-68
2021/01/05 01:46:09;;;;;;;11.47;8.63;;;3.90;1.00;;;;;;5074972;28;20172;-67
2021/01/05 01:48:35;;;;;;;14.07;8.63;;;3.90;1.00;;;;;;5074081;28;20215;-68
2021/01/05 01:51:02;;;;;;;13.10;8.07;;;4.00;1.00;;;;;;5074871;28;20656;-68
2021/01/05 01:53:41;;;;;;;13.27;9.02;;;4.10;1.00;;;;;;5074517;28;20176;-68
2021/01/05 01:56:31;;;;;;;12.50;8.45;;;3.90;1.00;;;;;;5074473;28;20211;-68
2021/01/05 01:58:58;;;;;;;10.55;8.30;;;4.00;1.00;;;;;;5074399;28;20196;-68
2021/01/05 02:01:35;;;;;;;13.27;8.90;;;4.10;1.00;;;;;;5074626;28;20543;-68
2021/01/05 02:04:09;;;;;;;12.65;9.52;;;4.00;1.00;;;;;;5074598;28;20156;-68
2021/01/05 02:07:09;;;;;;;12.98;9.40;;;4.10;1.00;;;;;;5074281;28;20159;-68
2021/01/05 02:10:12;;;;;;;11.73;8.40;;;4.10;1.00;;;;;;5074285;28;20192;-68
2021/01/05 02:13:00;;;;;;;11.55;7.97;;;4.00;1.00;;;;;;5074408;28;20172;-67
2021/01/05 02:15:45;;;;;;;15.07;9.90;;;3.90;1.00;;;;;;5074329;28;20272;-68
2021/01/05 02:18:27;;;;;;;9.80;7.85;;;3.90;1.00;;;;;;5074030;28;20172;-68
2021/01/05 02:21:04;;;;;;;10.95;8.02;;;3.90;1.00;;;;;;5075171;28;20156;-68
2021/01/05 02:24:03;;;;;;;13.50;9.43;;;4.20;1.00;;;;;;5074172;28;20163;-68
2021/01/05 02:26:45;;;;;;;12.48;8.60;;;4.00;1.00;;;;;;5073935;28;20629;-68
2021/01/05 02:29:17;;;;;;;10.55;8.55;;;3.90;1.00;;;;;;5073826;28;20241;-68
2021/01/05 02:32:09;;;;;;;12.52;8.65;;;4.30;1.00;;;;;;5074361;28;20156;-67
2021/01/05 02:34:42;;;;;;;11.20;8.73;;;4.10;1.00;;;;;;5074151;28;20172;-67
2021/01/05 02:37:35;;;;;;;13.32;8.88;;;4.00;1.00;;;;;;5073981;28;20180;-67
2021/01/05 02:40:39;;;;;;;13.15;9.52;;;3.90;1.00;;;;;;5072524;28;20199;-67
2021/01/05 02:43:23;;;;;;;13.43;8.90;;;4.30;1.00;;;;;;5031798;28;20260;-68
2021/01/05 02:46:09;;;;;;;14.32;9.38;;;4.20;1.00;;;;;;5031617;28;20258;-67
2021/01/05 02:48:43;;;;;;;15.27;10.88;;;4.20;1.00;;;;;;5061983;28;20282;-68
2021/01/05 02:51:27;;;;;;;16.88;10.80;;;4.50;1.00;;;;;;5073694;28;20157;-68
2021/01/05 02:54:23;;;;;;;12.90;9.32;;;4.30;1.00;;;;;;5073389;28;20164;-67
2021/01/05 02:57:06;;;;;;;14.60;9.80;;;4.10;1.00;;;;;;5073636;28;20246;-68
2021/01/05 03:00:01;;;;;;;16.73;11.00;;;4.10;1.00;;;;;;5072747;28;20644;-68
2021/01/05 03:02:33;;;;;;;18.15;10.13;;;4.00;1.00;;;;;;5073312;28;20175;-67
2021/01/05 03:04:58;;;;;;;16.27;10.00;;;4.20;1.00;;;;;;5073113;28;20164;-67
2021/01/05 03:07:28;;;;;;;15.27;10.47;;;4.10;1.00;;;;;;5073257;28;20706;-68
2021/01/05 03:10:05;;;;;;;13.55;9.82;;;4.00;1.00;;;;;;5073081;28;20198;-68
2021/01/05 03:12:45;;;;;;;14.35;9.85;;;4.00;1.00;;;;;;5073451;28;20202;-68
2021/01/05 03:15:38;;;;;;;12.50;9.10;;;4.20;1.00;;;;;;5073343;28;20555;-68
2021/01/05 03:18:18;;;;;;;14.95;9.55;;;3.90;1.00;;;;;;5073323;28;20176;-67
2021/01/05 03:21:17;;;;;;;15.23;10.63;;;3.90;1.00;;;;;;5073043;28;20188;-68
2021/01/05 03:23:45;;;;;;;15.20;10.05;;;4.00;1.00;;;;;;5065469;28;20222;-67
2021/01/05 03:26:15;;;;;;;16.27;10.30;;;4.10;1.00;;;;;;5073008;28;20255;-68
2021/01/05 03:28:41;;;;;;;19.25;11.48;;;4.20;1.00;;;;;;5073104;28;20168;-68
2021/01/05 03:31:17;;;;;;;16.47;11.00;;;4.10;1.00;;;;;;5073122;28;20183;-67
2021/01/05 03:33:43;;;;;;;16.55;10.25;;;4.20;1.00;;;;;;5072821;28;20778;-67
2021/01/05 03:36:11;;;;;;;13.33;9.63;;;4.00;1.00;;;;;;5072835;28;20290;-68
2021/01/05 03:38:37;;;;;;;14.52;10.23;;;4.20;1.00;;;;;;5072776;28;20176;-66
2021/01/05 03:41:02;;;;;;;17.30;11.63;;;4.00;1.00;;;;;;5072804;28;20170;-67
2021/01/05 03:43:28;;;;;;;16.70;11.00;;;3.90;1.00;;;;;;5072826;28;20179;-68
2021/01/05 03:45:53;;;;;;;17.97;11.60;;;4.00;1.00;;;;;;5072741;28;20540;-68
2021/01/05 03:48:19;;;;;;;18.80;11.73;;;4.00;1.00;;;;;;5072781;28;20180;-68
2021/01/05 03:50:45;;;;;;;20.73;11.87;;;4.00;1.00;;;;;;5072723;28;20196;-68
2021/01/05 03:53:10;;;;;;;16.13;9.87;;;3.90;1.00;;;;;;5072755;28;20171;-68
2021/01/05 03:55:36;;;;;;;17.80;11.50;;;4.10;1.00;;;;;;5072845;28;20192;-68
2021/01/05 03:58:01;;;;;;;14.80;9.93;;;4.20;1.00;;;;;;5072854;28;20225;-68
2021/01/05 04:00:27;;;;;;;16.37;10.87;;;4.00;1.00;;;;;;5073073;28;20318;-67
2021/01/05 04:02:54;;;;;;;16.47;10.33;;;4.20;1.00;;;;;;5072561;28;20172;-68
2021/01/05 04:05:22;;;;;;;18.08;10.23;;;3.90;1.00;;;;;;5072782;28;20269;-68
2021/01/05 04:07:47;;;;;;;17.48;11.77;;;4.00;1.00;;;;;;5072528;28;20536;-67
2021/01/05 04:10:13;;;;;;;19.33;12.03;;;4.00;1.00;;;;;;5072490;28;20271;-67
2021/01/05 04:12:39;;;;;;;15.00;10.60;;;3.80;1.00;;;;;;5076418;28;20174;-67
2021/01/05 04:15:07;;;;;;;13.90;10.20;;;3.70;1.00;;;;;;5076332;28;20410;-67
2021/01/05 04:17:33;;;;;;;16.33;10.68;;;3.90;1.00;;;;;;5076188;28;20168;-68
2021/01/05 04:19:59;;;;;;;19.57;11.10;;;4.00;1.00;;;;;;5076097;28;20233;-67
2021/01/05 04:22:24;;;;;;;19.63;11.30;;;4.10;1.00;;;;;;5076130;28;20406;-68
2021/01/05 04:24:50;;;;;;;17.60;11.30;;;3.90;1.00;;;;;;5076531;28;20168;-68
2021/01/05 04:27:15;;;;;;;18.90;12.17;;;4.10;1.00;;;;;;5076021;28;20246;-68
2021/01/05 04:29:41;;;;;;;16.43;10.90;;;4.20;1.00;;;;;;5075832;28;20191;-67
2021/01/05 04:32:07;;;;;;;16.93;10.67;;;3.80;1.00;;;;;;5075970;28;20259;-68
2021/01/05 04:34:32;;;;;;;20.47;11.03;;;4.00;1.00;;;;;;5075898;28;20266;-67
2021/01/05 04:36:58;;;;;;;16.60;11.13;;;4.00;1.00;;;;;;5076123;28;20196;-68
2021/01/05 04:39:24;;;;;;;19.73;11.33;;;3.90;1.00;;;;;;5075749;28;20675;-68
2021/01/05 04:42:03;;;;;;;14.20;9.87;;;4.20;1.00;;;;;;5075827;28;20648;-67
2021/01/05 04:44:33;;;;;;;20.20;11.45;;;4.10;1.00;;;;;;5075690;28;20164;-67
2021/01/05 04:47:12;;;;;;;17.48;11.77;;;4.10;1.00;;;;;;5075496;28;20153;-68
2021/01/05 04:50:10;;;;;;;17.20;10.85;;;4.00;1.00;;;;;;5075506;28;20643;-68
2021/01/05 04:52:46;;;;;;;18.65;11.60;;;3.80;1.00;;;;;;5075109;28;20579;-68
2021/01/05 04:55:34;;;;;;;14.95;10.60;;;3.90;1.00;;;;;;5075423;28;20188;-68
2021/01/05 04:58:09;;;;;;;18.77;10.43;;;3.70;1.00;;;;;;5075963;28;20238;-68
2021/01/05 05:00:37;;;;;;;17.55;11.60;;;3.90;1.00;;;;;;5075316;28;20188;-68
2021/01/05 05:03:10;;;;;;;14.60;10.55;;;4.00;1.00;;;;;;5074011;28;20164;-67
2021/01/05 05:05:53;;;;;;;16.58;10.63;;;3.80;1.00;;;;;;5075486;28;20247;-68
2021/01/05 05:08:48;;;;;;;16.05;10.38;;;4.10;1.00;;;;;;5075284;28;20159;-67
2021/01/05 05:11:20;;;;;;;19.13;11.52;;;4.30;1.00;;;;;;5066547;28;20613;-68
2021/01/05 05:14:00;;;;;;;20.25;12.73;;;4.00;1.00;;;;;;5075149;28;20176;-69
2021/01/05 05:16:38;;;;;;;14.82;9.45;;;4.30;1.00;;;;;;5074912;28;20244;-66
2021/01/05 05:19:18;;;;;;;20.60;12.32;;;4.00;1.00;;;;;;5074933;28;20271;-68
2021/01/05 05:21:56;;;;;;;17.23;10.77;;;3.90;1.00;;;;;;5074568;28;20144;-68
2021/01/05 05:24:42;;;;;;;18.75;10.95;;;3.80;1.00;;;;;;5074625;28;20164;-68
2021/01/05 05:27:17;;;;;;;24.13;12.98;;;3.90;1.00;;;;;;5074902;28;20585;-68
2021/01/05 05:29:50;;;;;;;19.70;12.35;;;4.10;1.00;;;;;;5074712;28;20188;-68
2021/01/05 05:32:28;;;;;;;18.35;10.93;;;4.00;1.00;;;;;;5075245;28;20156;-68
2021/01/05 05:34:59;;;;;;;20.30;11.98;;;4.20;1.00;;;;;;5074738;28;20152;-67
2021/01/05 05:37:36;;;;;;;21.20;12.23;;;4.00;1.00;;;;;;5074631;28;20161;-67
2021/01/05 05:40:21;;;;;;;26.42;13.13;;;3.90;1.00;;;;;;5074661;28;20192;-69
2021/01/05 05:43:05;;;;;;;20.73;12.07;;;3.90;1.00;;;;;;5074818;28;20152;-68
2021/01/05 05:45:44;;;;;;;17.88;12.07;;;4.00;1.00;;;;;;5074876;28;20170;-68
2021/01/05 05:48:22;;;;;;;17.85;11.75;;;4.10;1.00;;;;;;5074318;28;20199;-68
2021/01/05 05:50:50;;;;;;;20.85;12.80;;;4.10;1.00;;;;;;5074715;28;20171;-68
2021/01/05 05:53:26;;;;;;;20.10;12.73;;;3.80;1.00;;;;;;5074347;28;20168;-68
2021/01/05 05:56:16;;;;;;;17.73;11.57;;;3.70;3.50;;;;;;5074780;28;20192;-68
2021/01/05 05:58:48;;;;;;;22.00;10.55;;;3.90;11.90;;;;;;5074595;28;20198;-69
2021/01/05 06:01:19;;;;;;;17.10;11.05;;;3.90;2.50;;;;;;5074368;28;20149;-68
2021/01/05 06:03:44;;;;;;;19.60;11.25;;;3.90;1.00;;;;;;5074242;28;20160;-68
2021/01/05 06:06:10;;;;;;;21.33;12.67;;;4.00;1.00;;;;;;5073869;28;20637;-68
2021/01/05 06:08:35;;;;;;;20.43;10.77;;;4.00;1.00;;;;;;5073396;28;20641;-68
2021/01/05 06:11:02;;;;;;;18.40;11.60;;;4.10;1.00;;;;;;5074177;28;20243;-68
2021/01/05 06:13:28;;;;;;;18.42;10.60;;;4.00;1.00;;;;;;5073976;28;20176;-68
2021/01/05 06:15:53;;;;;;;26.43;13.00;;;3.80;1.00;;;;;;5073996;28;20203;-67
2021/01/05 06:18:19;;;;;;;23.90;13.10;;;4.10;1.00;;;;;;5073855;28;20251;-68
2021/01/05 06:20:46;;;;;;;19.93;12.83;;;3.90;1.00;;;;;;5073773;28;20265;-68
2021/01/05 06:23:12;;;;;;;19.52;12.80;;;4.10;1.00;;;;;;5073432;28;20679;-68
2021/01/05 06:25:37;;;;;;;21.88;13.50;;;3.80;1.00;;;;;;5073657;28;20702;-68
2021/01/05 06:28:04;;;;;;;16.03;10.63;;;3.50;8.00;;;;;;5073730;28;20172;-68
2021/01/05 06:30:29;;;;;;;21.00;11.40;;;3.50;26.70;;;;;;5073438;28;20196;-68
2021/01/05 06:32:55;;;;;;;18.50;11.50;;;3.40;40.10;;;;;;5073701;28;20304;-68
2021/01/05 06:35:22;;;;;;;18.73;12.07;;;3.80;50.40;;;;;;5073356;28;20196;-68
2021/01/05 06:37:51;;;;;;;24.90;12.70;;;3.90;12.40;;;;;;5073574;28;20211;-68
2021/01/05 06:40:20;;;;;;;20.13;11.93;;;4.00;1.00;;;;;;5073619;28;20180;-68
2021/01/05 06:42:46;;;;;;;20.00;11.63;;;3.90;1.00;;;;;;5073187;28;20169;-68
2021/01/05 06:45:19;;;;;;;28.17;12.73;;;4.00;7.10;;;;;;5073536;28;20210;-68
2021/01/05 06:47:44;;;;;;;20.00;11.18;;;3.80;2.30;;;;;;5073089;28;20164;-68
2021/01/05 06:50:11;;;;;;;22.90;11.57;;;3.70;20.00;;;;;;5073087;28;20212;-68
2021/01/05 06:52:36;;;;;;;18.33;11.68;;;3.70;20.80;;;;;;5073253;28;20172;-68
2021/01/05 06:55:02;;;;;;;21.47;13.17;;;4.00;6.60;;;;;;5073329;28;20175;-68
2021/01/05 06:57:28;;;;;;;19.80;11.98;;;4.30;1.00;;;;;;5072887;28;20172;-68
2021/01/05 06:59:54;;;;;;;30.87;14.27;;;4.20;1.00;;;;;;5073039;28;20195;-68
2021/01/05 07:02:19;;;;;;;20.90;12.53;;;4.00;1.00;;;;;;5073438;28;20183;-68
2021/01/05 07:04:45;;;;;;;18.37;11.57;;;4.10;1.00;;;;;;5073451;28;20222;-68
2021/01/05 07:07:10;;;;;;;23.23;13.40;;;3.90;1.00;;;;;;5073393;28;20635;-68
2021/01/05 07:09:36;;;;;;;21.00;12.73;;;4.00;8.80;;;;;;5073590;28;20192;-68
2021/01/05 07:12:02;;;;;;;21.73;11.30;;;3.90;7.50;;;;;;5073817;28;20179;-68
2021/01/05 07:14:28;;;;;;;19.40;12.27;;;4.20;1.00;;;;;;5073319;28;20513;-66
2021/01/05 07:16:54;;;;;;;21.50;12.00;;;4.00;1.00;;;;;;5073110;28;20715;-68
2021/01/05 07:19:20;;;;;;;18.93;11.30;;;4.20;1.10;;;;;;5072922;28;20283;-67
2021/01/05 07:21:45;;;;;;;19.10;11.43;;;4.30;1.00;;;;;;5073046;28;20176;-68
2021/01/05 07:24:12;;;;;;;25.60;12.13;;;4.30;1.00;;;;;;5072761;28;20403;-68
2021/01/05 07:26:42;;;;;;;23.52;12.35;;;4.40;1.00;;;;;;5072947;28;20195;-68
2021/01/05 07:29:11;;;;;;;27.02;11.90;;;4.10;1.00;;;;;;5072899;28;20195;-68
2021/01/05 07:31:36;;;;;;;36.85;12.50;;;3.90;1.00;;;;;;5072842;28;20160;-68
2021/01/05 07:34:02;;;;;;;20.63;11.70;;;3.90;7.80;;;;;;5073208;28;20179;-68
2021/01/05 07:36:34;;;;;;;36.67;13.50;;;4.00;1.00;;;;;;5072869;28;20203;-68
2021/01/05 07:39:00;;;;;;;20.15;11.82;;;3.80;1.00;;;;;;5072890;28;20188;-68
2021/01/05 07:41:25;;;;;;;29.70;15.20;;;3.80;5.70;;;;;;5072831;28;20164;-67
2021/01/05 07:43:51;;;;;;;26.53;11.37;;;4.00;17.20;;;;;;5072645;28;20919;-67
2021/01/05 07:46:17;;;;;;;20.63;12.53;;;3.90;1.40;;;;;;5074494;28;20251;-68
2021/01/05 07:48:43;;;;;;;23.17;11.93;;;4.10;1.00;;;;;;5075599;28;20211;-69
2021/01/05 07:51:10;;;;;;;21.80;11.98;;;4.30;1.00;;;;;;5076808;28;20943;-68
2021/01/05 07:53:36;;;;;;;18.42;11.52;;;4.00;1.00;;;;;;5076685;28;20182;-68
2021/01/05 07:56:02;;;;;;;19.35;10.70;;;4.20;1.00;;;;;;5076930;28;20691;-68
2021/01/05 07:58:27;;;;;;;18.33;11.20;;;3.80;1.00;;;;;;5076810;28;20164;-68
2021/01/05 08:00:53;;;;;;;18.60;10.90;;;3.60;19.80;;;;;;5076744;28;20832;-67
2021/01/05 08:03:19;;;;;;;19.90;11.10;;;4.00;6.20;;;;;;5076725;28;20666;-68
2021/01/05 08:05:44;;;;;;;35.30;11.70;;;3.90;1.00;;;;;;5076612;28;20573;-68
2021/01/05 08:08:10;;;;;;;20.10;11.67;;;3.70;10.00;;;;;;5076647;28;20183;-68
2021/01/05 08:10:37;;;;;;;28.02;12.98;;;3.70;4.90;;;;;;5076668;28;20200;-68
2021/01/05 08:13:06;;;;;;;19.98;12.70;;;3.90;12.20;;;;;;5076238;28;20172;-69
2021/01/05 08:15:32;;;;;;;22.08;11.63;;;4.10;1.00;;;;;;5076688;28;20196;-68
2021/01/05 08:18:00;;;;;;;23.80;12.73;;;4.10;1.00;;;;;;5076604;28;20168;-68
2021/01/05 08:20:28;;;;;;;24.15;10.98;;;4.20;1.00;;;;;;5076095;28;20237;-67
2021/01/05 08:22:54;;;;;;;15.75;10.55;;;3.90;1.00;;;;;;5075944;28;20164;-67
2021/01/05 08:25:20;;;;;;;36.50;13.35;;;3.90;18.20;;;;;;5076094;28;20719;-70
2021/01/05 08:27:48;;;;;;;23.10;12.48;;;4.00;1.50;;;;;;5076387;28;20215;-69
2021/01/05 08:30:21;;;;;;;25.85;12.73;;;3.90;1.00;;;;;;5076006;28;20204;-68
2021/01/05 08:32:47;;;;;;;18.42;10.52;;;4.00;1.00;;;;;;5075799;28;20164;-69
2021/01/05 08:35:15;;;;;;;27.00;13.38;;;3.80;4.00;;;;;;5075620;28;20243;-68
2021/01/05 08:37:41;;;;;;;24.33;12.40;;;3.90;22.60;;;;;;5075860;28;20210;-68
2021/01/05 08:40:11;;;;;;;26.38;11.30;;;4.10;1.00;;;;;;5075960;28;20267;-68
2021/01/05 08:42:37;;;;;;;29.73;10.70;;;4.20;1.00;;;;;;5076126;28;20196;-68
2021/01/05 08:45:04;;;;;;;17.37;10.50;;;4.30;1.00;;;;;;5075848;28;20664;-68
2021/01/05 08:47:30;;;;;;;29.70;11.57;;;4.10;1.00;;;;;;5075073;28;20402;-68
2021/01/05 08:49:56;;;;;;;23.63;11.33;;;4.10;1.00;;;;;;5075442;28;20314;-68
2021/01/05 08:52:21;;;;;;;47.43;11.63;;;4.40;1.00;;;;;;5075704;28;20174;-69
2021/01/05 08:54:47;;;;;;;20.70;10.83;;;4.40;1.00;;;;;;5075230;28;20472;-67
2021/01/05 08:57:14;;;;;;;18.27;9.50;;;4.20;1.00;;;;;;5074296;28;20199;-67
2021/01/05 08:59:40;;;;;;;25.13;11.43;;;4.00;1.00;;;;;;5076478;28;20235;-67
2021/01/05 09:02:06;;;;;;;20.52;11.43;;;4.00;1.00;;;;;;5075587;28;20241;-66
2021/01/05 09:04:32;;;;;;;24.45;12.80;;;4.00;7.60;;;;;;5075591;28;20259;-67
2021/01/05 09:06:57;;;;;;;24.37;10.47;;;4.20;1.00;;;;;;5075408;28;20270;-66
2021/01/05 09:09:24;;;;;;;16.47;9.90;;;4.20;1.00;;;;;;5075151;28;20606;-68
2021/01/05 09:11:53;;;;;;;19.40;10.35;;;4.20;1.00;;;;;;5075475;28;20176;-68
2021/01/05 09:14:20;;;;;;;21.05;10.40;;;4.40;1.00;;;;;;5075892;28;20195;-68
2021/01/05 09:16:46;;;;;;;38.97;12.60;;;4.60;1.00;;;;;;5075668;28;20291;-68
2021/01/05 09:19:11;;;;;;;23.90;10.40;;;4.60;1.00;;;;;;5075124;28;20261;-68
2021/01/05 09:21:37;;;;;;;19.77;10.33;;;4.50;1.00;;;;;;5075106;28;20442;-66
2021/01/05 09:24:03;;;;;;;27.37;12.73;;;4.60;1.00;;;;;;5075000;28;20251;-68
2021/01/05 09:26:35;;;;;;;15.50;9.50;;;5.00;1.00;;;;;;5074959;28;20951;-68
2021/01/05 09:29:03;;;;;;;17.25;10.25;;;4.80;1.00;;;;;;5075011;28;20188;-68
2021/01/05 09:31:28;;;;;;;17.00;10.90;;;4.40;1.00;;;;;;5074871;28;20518;-68
2021/01/05 09:33:54;;;;;;;18.97;10.07;;;4.50;1.00;;;;;;5075027;28;20171;-68
2021/01/05 09:36:31;;;;;;;31.90;11.50;;;4.30;1.00;;;;;;5074801;28;20191;-68
2021/01/05 09:38:57;;;;;;;32.45;11.07;;;4.40;1.00;;;;;;5074892;28;20414;-67
2021/01/05 09:41:25;;;;;;;16.53;9.23;;;4.30;1.00;;;;;;5074826;28;20181;-68
2021/01/05 09:43:51;;;;;;;23.15;12.48;;;4.60;1.00;;;;;;5074643;28;20467;-68
2021/01/05 09:46:19;;;;;;;25.87;10.53;;;4.70;1.00;;;;;;5075011;28;20164;-68
2021/01/05 09:48:46;;;;;;;16.20;9.18;;;4.50;1.00;;;;;;5074274;28;20195;-68
2021/01/05 09:51:23;;;;;;;18.83;10.75;;;4.60;1.00;;;;;;5074362;28;20180;-68
2021/01/05 09:53:48;;;;;;;23.40;9.68;;;4.80;1.00;;;;;;5074966;28;20178;-68
2021/01/05 09:56:14;;;;;;;23.97;10.13;;;4.90;1.00;;;;;;5074128;28;20338;-68
2021/01/05 09:58:41;;;;;;;22.02;10.27;;;4.70;1.00;;;;;;5073161;28;20263;-67
2021/01/05 10:01:06;;;;;;;14.70;10.35;;;4.50;1.00;;;;;;5074108;28;20174;-68
2021/01/05 10:03:32;;;;;;;22.77;10.53;;;4.70;1.00;;;;;;5074552;28;20637;-68
2021/01/05 10:05:57;;;;;;;16.80;10.23;;;4.60;1.00;;;;;;5074052;28;20467;-68
2021/01/05 10:08:23;;;;;;;16.20;11.07;;;4.90;1.00;;;;;;5073650;28;20173;-68
2021/01/05 10:10:48;;;;;;;31.20;11.37;;;4.90;1.00;;;;;;5074743;28;20623;-68
2021/01/05 10:13:14;;;;;;;22.73;10.87;;;5.00;1.00;;;;;;5072811;28;20168;-68
2021/01/05 10:15:39;;;;;;;25.73;11.97;;;4.70;1.00;;;;;;5074100;28;20714;-68
2021/01/05 10:18:05;;;;;;;35.97;12.40;;;4.80;1.00;;;;;;5073776;28;20539;-68
2021/01/05 10:20:31;;;;;;;65.27;13.83;;;4.80;1.00;;;;;;5073834;28;20187;-68
2021/01/05 10:22:57;;;;;;;27.25;10.50;;;4.70;1.00;;;;;;5073825;28;20169;-69
2021/01/05 10:25:23;;;;;;;22.10;10.60;;;4.70;1.00;;;;;;5074105;28;20175;-68
2021/01/05 10:27:49;;;;;;;25.67;11.27;;;4.40;1.00;;;;;;5074373;28;20518;-69
2021/01/05 10:30:16;;;;;;;18.55;11.85;;;4.60;1.00;;;;;;5073833;28;20188;-68
2021/01/05 10:32:42;;;;;;;36.28;11.63;;;4.90;1.00;;;;;;5073631;28;20172;-68
2021/01/05 10:35:08;;;;;;;47.72;12.52;;;4.90;1.00;;;;;;5073677;28;20179;-69
2021/01/05 10:37:34;;;;;;;55.55;14.45;;;4.90;1.00;;;;;;5073676;28;20219;-68
2021/01/05 10:40:00;;;;;;;27.07;14.10;;;5.00;1.00;;;;;;5073662;28;20191;-68
2021/01/05 10:42:25;;;;;;;34.43;12.63;;;4.70;1.00;;;;;;5073707;28;20160;-68
2021/01/05 10:44:51;;;;;;;38.33;12.93;;;4.70;1.00;;;;;;5073155;28;20170;-68
2021/01/05 10:47:16;;;;;;;19.00;12.00;;;4.80;1.00;;;;;;5073378;28;20270;-69
2021/01/05 10:49:42;;;;;;;43.50;14.27;;;4.90;1.00;;;;;;5073147;28;20257;-69
2021/01/05 10:52:14;;;;;;;24.30;12.00;;;5.10;1.00;;;;;;5073599;28;20195;-68
2021/01/05 10:54:40;;;;;;;29.75;13.75;;;5.00;1.00;;;;;;5073574;28;20160;-69
2021/01/05 10:57:06;;;;;;;27.10;14.20;;;5.30;1.00;;;;;;5073112;28;20749;-67
2021/01/05 10:59:33;;;;;;;20.92;11.65;;;5.10;1.00;;;;;;5073245;28;20711;-68
2021/01/05 11:02:02;;;;;;;19.92;13.38;;;4.80;1.00;;;;;;5073393;28;20175;-69
2021/01/05 11:04:31;;;;;;;18.83;10.20;;;4.50;1.00;;;;;;5073321;28;20223;-69
2021/01/05 11:06:59;;;;;;;19.33;10.57;;;4.40;1.00;;;;;;5073056;28;20258;-68
2021/01/05 11:09:25;;;;;;;19.20;11.27;;;4.40;9.90;;;;;;5073004;28;20561;-69
2021/01/05 11:12:06;;;;;;;17.77;11.15;;;4.60;1.00;;;;;;5073355;28;20183;-68
2021/01/05 11:14:32;;;;;;;17.67;10.75;;;4.70;1.00;;;;;;5073590;28;20231;-68
2021/01/05 11:16:57;;;;;;;17.20;10.85;;;4.70;1.00;;;;;;5073308;28;20192;-68
2021/01/05 11:19:25;;;;;;;21.53;12.10;;;4.50;1.10;;;;;;5072909;28;20210;-69
2021/01/05 11:21:53;;;;;;;22.35;12.15;;;4.70;9.30;;;;;;5072252;28;20172;-69
2021/01/05 11:24:20;;;;;;;17.67;10.57;;;4.80;1.00;;;;;;5076577;28;20160;-66
2021/01/05 11:26:46;;;;;;;16.88;11.23;;;5.10;1.00;;;;;;5073465;28;20595;-69
2021/01/05 11:29:12;;;;;;;18.20;11.83;;;4.80;1.00;;;;;;5072943;28;20216;-68
2021/01/05 11:31:37;;;;;;;16.33;9.70;;;4.90;6.50;;;;;;5073326;28;20380;-67
2021/01/05 11:34:03;;;;;;;14.00;10.17;;;4.80;3.00;;;;;;5072903;28;20411;-69
2021/01/05 11:36:29;;;;;;;13.17;10.60;;;5.20;1.00;;;;;;5072871;28;20687;-69
2021/01/05 11:38:56;;;;;;;16.17;10.32;;;5.20;1.00;;;;;;5072754;28;20688;-68
2021/01/05 11:41:28;;;;;;;18.38;11.07;;;5.20;1.00;;;;;;5071667;28;20509;-68
2021/01/05 11:43:54;;;;;;;16.77;10.85;;;5.20;1.00;;;;;;5073082;28;20195;-69
2021/01/05 11:46:20;;;;;;;18.42;10.80;;;5.20;1.00;;;;;;5072852;28;20176;-69
2021/01/05 11:48:46;;;;;;;12.38;10.07;;;5.10;1.00;;;;;;5072688;28;20208;-68
2021/01/05 11:51:20;;;;;;;20.93;10.43;;;5.20;1.00;;;;;;5073051;28;20172;-68
2021/01/05 11:53:45;;;;;;;17.70;11.43;;;5.60;1.00;;;;;;5073144;28;20168;-69
2021/01/05 11:56:25;;;;;;;17.20;11.27;;;5.40;1.00;;;;;;5072604;28;20675;-68
2021/01/05 11:58:51;;;;;;;16.83;10.88;;;4.90;1.00;;;;;;5072769;28;20180;-69
2021/01/05 12:01:17;;;;;;;18.70;11.55;;;5.10;1.00;;;;;;5072924;28;20536;-69
2021/01/05 12:03:43;;;;;;;20.93;12.07;;;4.90;1.00;;;;;;5072746;28;20164;-68
2021/01/05 12:06:14;;;;;;;22.00;10.53;;;4.90;1.00;;;;;;5072907;28;20198;-69
2021/01/05 12:08:40;;;;;;;17.45;12.07;;;5.10;1.00;;;;;;5072856;28;20525;-69
2021/01/05 12:11:05;;;;;;;25.80;11.50;;;5.00;1.00;;;;;;5072403;28;20176;-69
2021/01/05 12:13:31;;;;;;;22.33;12.40;;;5.00;1.00;;;;;;5072697;28;20392;-69
2021/01/05 12:15:56;;;;;;;24.63;12.43;;;5.20;1.00;;;;;;5072331;28;20286;-69
2021/01/05 12:18:22;;;;;;;19.93;12.10;;;5.40;1.00;;;;;;5072778;28;20168;-69
2021/01/05 12:20:48;;;;;;;26.67;12.87;;;5.00;1.00;;;;;;5072600;28;20188;-69
2021/01/05 12:23:13;;;;;;;20.27;11.57;;;5.00;1.00;;;;;;5072335;28;20165;-68
2021/01/05 12:25:39;;;;;;;20.13;12.60;;;4.80;1.00;;;;;;5072686;28;20182;-68
2021/01/05 12:28:06;;;;;;;22.58;10.73;;;4.70;4.30;;;;;;5073129;28;20172;-68
2021/01/05 12:30:32;;;;;;;23.20;12.52;;;5.20;1.00;;;;;;5072541;28;20199;-67
2021/01/05 12:32:58;;;;;;;20.77;11.50;;;5.40;1.00;;;;;;5074886;28;20164;-68
2021/01/05 12:35:23;;;;;;;24.30;11.97;;;5.60;1.00;;;;;;5076244;28;20504;-68
2021/01/05 12:37:49;;;;;;;21.57;12.90;;;5.50;1.00;;;;;;5075994;28;20164;-68
2021/01/05 12:40:15;;;;;;;21.13;13.20;;;5.30;1.00;;;;;;5076042;28;20210;-68
2021/01/05 12:42:40;;;;;;;20.33;11.70;;;5.20;1.00;;;;;;5075641;28;20233;-68
2021/01/05 12:45:07;;;;;;;18.80;10.47;;;5.40;1.00;;;;;;5075454;28;20402;-68
2021/01/05 12:47:33;;;;;;;20.13;14.20;;;5.60;1.00;;;;;;5076049;28;20229;-67
2021/01/05 12:49:58;;;;;;;22.23;13.60;;;5.40;1.00;;;;;;5075564;28;20207;-68
2021/01/05 12:52:24;;;;;;;21.77;12.20;;;5.30;1.00;;;;;;5075532;28;20160;-66
2021/01/05 12:54:49;;;;;;;21.80;12.10;;;5.30;1.00;;;;;;5075505;28;20191;-68
2021/01/05 12:57:17;;;;;;;20.77;12.20;;;5.10;1.00;;;;;;5076115;28;20266;-68
2021/01/05 12:59:45;;;;;;;20.45;12.57;;;4.90;2.50;;;;;;5075851;28;20188;-68
2021/01/05 13:02:20;;;;;;;21.05;13.02;;;5.20;1.00;;;;;;5075581;28;20659;-68